Time;durP1;ratioP1;P1;durP2;ratioP2;P2;SDS_P1;SDS_P2;PMS_P1;PMS_P2;Temp;Humidity;BMP_temperature;BMP_pressure;BME280_temperature;BME280_humidity;BME280_pressure;Samples;Min_cycle;Max_cycle;Signal;HPM_P1;HPM_P2
2022/04/27 01:13:56;;;;;;;3.28;1.80;;;;;;;12.81;100.00;99487.28;6247363;22;20034;-62
2022/04/27 01:16:41;;;;;;;2.70;1.80;;;;;;;12.96;100.00;99503.59;6251535;22;20034;-62
2022/04/27 01:19:26;;;;;;;4.38;2.20;;;;;;;13.07;100.00;99497.94;6274203;22;20107;-62
2022/04/27 01:22:10;;;;;;;5.30;1.92;;;;;;;12.94;100.00;99499.25;6260570;22;20034;-63
2022/04/27 01:25:00;;;;;;;4.10;1.90;;;;;;;12.89;100.00;99499.41;6251409;22;20026;-62
2022/04/27 01:27:45;;;;;;;2.50;2.00;;;;;;;12.77;100.00;99499.81;6262247;22;20031;-62
2022/04/27 01:30:30;;;;;;;3.55;2.10;;;;;;;12.91;100.00;99500.25;6259541;22;20074;-62
2022/04/27 01:33:15;;;;;;;3.67;2.20;;;;;;;12.92;100.00;99499.31;6261853;22;20027;-61
2022/04/27 01:36:00;;;;;;;5.95;2.08;;;;;;;12.93;100.00;99500.16;6261777;22;20089;-63
2022/04/27 01:38:44;;;;;;;3.22;2.10;;;;;;;12.75;100.00;99496.31;6262039;22;20078;-62
2022/04/27 01:41:29;;;;;;;4.78;1.90;;;;;;;12.74;100.00;99499.06;6259040;22;20026;-63
2022/04/27 01:44:13;;;;;;;3.78;1.92;;;;;;;12.83;100.00;99504.94;6251298;22;20045;-62
2022/04/27 01:46:58;;;;;;;2.78;1.70;;;;;;;12.71;100.00;99494.69;6261537;22;20030;-64
2022/04/27 01:49:42;;;;;;;2.70;1.80;;;;;;;12.77;100.00;99504.25;6284857;22;20488;-63
2022/04/27 01:55:50;;;;;;;4.40;2.42;;;;;;;12.56;100.00;99512.94;6214122;23;20043;-64
2022/04/27 01:58:35;;;;;;;4.18;2.20;;;;;;;12.49;100.00;99506.06;6199455;23;20083;-64
2022/04/27 02:01:21;;;;;;;4.00;1.88;;;;;;;12.32;100.00;99484.47;6212672;23;20058;-63
2022/04/27 02:04:06;;;;;;;7.00;1.85;;;;;;;12.59;100.00;99511.03;6170513;23;20095;-62
2022/04/27 02:06:51;;;;;;;3.15;1.35;;;;;;;12.57;100.00;99496.06;6170299;23;20530;-63
2022/04/27 02:09:36;;;;;;;3.67;1.60;;;;;;;12.66;100.00;99519.72;6222967;23;20078;-62
2022/04/27 02:12:20;;;;;;;2.35;1.50;;;;;;;12.49;100.00;99487.44;6202252;23;20473;-63
2022/04/27 02:15:16;;;;;;;2.60;1.45;;;;;;;12.65;100.00;99518.84;6192121;23;20035;-63
2022/04/27 02:18:03;;;;;;;4.88;1.55;;;;;;;12.64;100.00;99525.09;6213270;23;20128;-62
2022/04/27 02:20:48;;;;;;;2.30;1.48;;;;;;;12.51;100.00;99507.75;6192228;23;20493;-63
2022/04/27 02:23:33;;;;;;;1.77;1.20;;;;;;;12.67;100.00;99532.09;6223915;23;20032;-62
2022/04/27 02:26:18;;;;;;;3.05;1.30;;;;;;;12.60;100.00;99528.75;6202114;23;20123;-62
2022/04/27 02:29:02;;;;;;;1.95;1.38;;;;;;;12.45;100.00;99529.25;6221569;22;20077;-63
2022/04/27 02:31:49;;;;;;;3.60;1.30;;;;;;;12.48;100.00;99542.44;6262492;22;20078;-63
2022/04/27 02:34:34;;;;;;;2.05;1.30;;;;;;;12.50;100.00;99537.09;6242868;22;20492;-65
2022/04/27 02:37:18;;;;;;;1.98;1.10;;;;;;;12.16;100.00;99473.47;6252463;22;20027;-63
2022/04/27 02:40:09;;;;;;;2.10;1.38;;;;;;;12.50;100.00;99543.25;6263298;22;20488;-63
2022/04/27 02:42:54;;;;;;;3.92;1.45;;;;;;;12.48;100.00;99546.88;6231883;22;20046;-63
2022/04/27 02:45:41;;;;;;;2.33;1.45;;;;;;;12.36;100.00;99512.69;6286083;22;20505;-65
2022/04/27 02:48:25;;;;;;;4.28;1.65;;;;;;;12.22;100.00;99523.75;6262627;22;20097;-63
2022/04/27 02:54:13;;;;;;;3.70;1.35;;;;;;;12.35;100.00;99540.22;6252731;22;20088;-62
2022/04/27 02:56:58;;;;;;;1.63;1.20;;;;;;;12.37;100.00;99549.88;6240284;22;20407;-63
2022/04/27 02:59:46;;;;;;;2.30;1.60;;;;;;;12.41;100.00;99554.19;6253318;22;20110;-63
2022/04/27 03:02:32;;;;;;;3.47;1.48;;;;;;;12.33;100.00;99557.97;6286269;22;20027;-63
2022/04/27 03:05:21;;;;;;;1.65;1.23;;;;;;;12.33;100.00;99560.66;6232488;22;20054;-65
2022/04/27 03:08:06;;;;;;;2.50;1.42;;;;;;;12.33;100.00;99569.50;6263280;22;20027;-67
2022/04/27 03:10:56;;;;;;;2.35;1.70;;;;;;;12.12;100.00;99563.94;6253007;22;20361;-65
2022/04/27 03:13:52;;;;;;;5.05;1.30;;;;;;;12.16;100.00;99563.81;6242815;23;20490;-64
2022/04/27 03:16:37;;;;;;;;;;;;;;;12.25;100.00;99568.88;6255168;23;20551;-64
2022/04/27 03:19:23;;;;;;;3.93;1.73;;;;;;;12.21;100.00;99566.31;6254726;23;19923;-64
2022/04/27 03:22:10;;;;;;;2.55;1.70;;;;;;;12.07;100.00;99555.25;6234141;23;20031;-63
2022/04/27 03:24:55;;;;;;;2.03;1.38;;;;;;;11.97;100.00;99570.59;6255807;23;20108;-65
2022/04/27 03:27:44;;;;;;;2.10;1.30;;;;;;;12.02;100.00;99573.97;6256891;23;20055;-63
2022/04/27 03:30:29;;;;;;;3.70;1.58;;;;;;;12.08;100.00;99576.47;6255290;23;20030;-64
2022/04/27 03:33:17;;;;;;;4.03;1.58;;;;;;;11.93;100.00;99558.31;6234400;23;20509;-63
2022/04/27 03:36:02;;;;;;;2.20;1.65;;;;;;;11.90;100.00;99562.81;6255274;23;20034;-62
2022/04/27 03:38:48;;;;;;;4.03;1.85;;;;;;;12.08;100.00;99588.88;6256181;23;20457;-63
2022/04/27 03:41:33;;;;;;;4.82;1.85;;;;;;;11.95;100.00;99567.09;6254951;23;20083;-63
2022/04/27 03:44:17;;;;;;;3.58;1.85;;;;;;;12.01;100.00;99582.00;6254295;23;20026;-62
2022/04/27 03:47:02;;;;;;;5.38;2.00;;;;;;;11.98;100.00;99592.69;6254493;23;20071;-65
2022/04/27 03:49:49;;;;;;;2.03;1.55;;;;;;;12.03;100.00;99588.16;6223715;23;20026;-66
2022/04/27 03:52:34;;;;;;;3.38;1.75;;;;;;;11.98;100.00;99574.97;6245409;23;20034;-65
2022/04/27 03:55:19;;;;;;;2.78;2.08;;;;;;;12.04;100.00;99585.44;6233648;23;20052;-64
2022/04/27 03:58:06;;;;;;;4.22;1.73;;;;;;;12.01;100.00;99597.94;6223920;23;20031;-63
2022/04/27 04:00:54;;;;;;;3.67;1.95;;;;;;;12.03;100.00;99596.97;6254664;23;20051;-64
2022/04/27 04:03:40;;;;;;;2.47;1.80;;;;;;;11.93;100.00;99576.91;6243937;23;20425;-64
2022/04/27 04:06:25;;;;;;;2.47;1.83;;;;;;;11.92;100.00;99569.84;6222522;23;20070;-64
2022/04/27 04:09:10;;;;;;;;;;;;;;;12.14;100.00;99597.53;6254327;23;20347;-65
2022/04/27 04:11:56;;;;;;;4.70;2.00;;;;;;;12.01;100.00;99601.47;6254271;23;19918;-63
2022/04/27 04:15:04;;;;;;;6.30;1.70;;;;;;;12.09;100.00;99610.09;6221908;23;20059;-64
2022/04/27 04:18:01;;;;;;;4.88;1.70;;;;;;;12.20;100.00;99602.69;6222465;23;20482;-66
2022/04/27 04:20:58;;;;;;;8.00;2.17;;;;;;;12.28;100.00;99608.66;6254911;23;20092;-67
2022/04/27 04:23:45;;;;;;;6.05;2.22;;;;;;;12.14;100.00;99602.84;6222871;23;20063;-66
2022/04/27 04:29:33;;;;;;;5.28;1.88;;;;;;;12.32;100.00;99617.41;6256331;23;20051;-66
2022/04/27 04:32:18;;;;;;;5.97;2.00;;;;;;;12.36;100.00;99606.66;6233092;23;20042;-66
2022/04/27 04:35:23;;;;;;;5.63;1.83;;;;;;;12.51;100.00;99606.16;6215951;23;20346;-65
2022/04/27 04:38:08;;;;;;;4.50;2.17;;;;;;;12.50;100.00;99607.09;6223608;23;20031;-66
2022/04/27 04:40:52;;;;;;;5.72;2.00;;;;;;;12.70;100.00;99617.13;6201176;23;20111;-69
2022/04/27 04:43:38;;;;;;;4.97;2.17;;;;;;;12.78;100.00;99613.28;6245934;23;20103;-64
2022/04/27 04:46:23;;;;;;;;;;;;;;;12.96;100.00;99615.38;6224158;23;20401;-64
2022/04/27 04:49:21;;;;;;;4.82;2.17;;;;;;;12.81;100.00;99622.97;6233976;23;20014;-64
2022/04/27 04:52:18;;;;;;;6.07;2.30;;;;;;;12.86;100.00;99621.91;6244210;23;20409;-64
2022/04/27 04:55:09;;;;;;;6.28;2.58;;;;;;;12.93;100.00;99619.91;6256181;23;20030;-65
2022/04/27 04:58:21;;;;;;;5.35;2.40;;;;;;;12.90;100.00;99606.72;6233406;23;20055;-64
2022/04/27 05:01:24;;;;;;;6.70;2.80;;;;;;;13.04;100.00;99620.50;6255856;23;20035;-64
2022/04/27 05:04:22;;;;;;;2.95;2.25;;;;;;;12.93;100.00;99618.13;6232112;23;20023;-64
2022/04/27 05:07:18;;;;;;;5.33;2.27;;;;;;;12.99;100.00;99628.63;6222438;23;20027;-64
2022/04/27 05:10:12;;;;;;;6.68;2.15;;;;;;;12.99;100.00;99625.09;6223129;23;20553;-64
2022/04/27 05:13:06;;;;;;;7.35;2.60;;;;;;;13.13;100.00;99636.16;6232074;22;20403;-63
2022/04/27 05:16:16;;;;;;;5.63;2.50;;;;;;;13.08;100.00;99631.00;6258359;22;20085;-63
2022/04/27 05:19:23;;;;;;;9.45;2.60;;;;;;;13.14;100.00;99632.59;6162093;23;20031;-64
2022/04/27 05:22:35;;;;;;;4.78;2.45;;;;;;;13.13;100.00;99639.69;6151235;23;20470;-63
2022/04/27 05:25:46;;;;;;;5.00;2.93;;;;;;;13.19;100.00;99643.97;6092792;23;20037;-64
2022/04/27 05:32:12;;;;;;;4.97;2.40;;;;;;;13.03;100.00;99640.06;6073131;23;20089;-63
2022/04/27 05:35:23;;;;;;;6.13;2.47;;;;;;;13.16;100.00;99625.41;6093204;23;20141;-65
2022/04/27 05:38:34;;;;;;;6.38;2.88;;;;;;;13.32;100.00;99645.28;6083012;23;20459;-64
2022/04/27 05:41:34;;;;;;;8.25;3.40;;;;;;;13.43;100.00;99645.81;6073421;23;20527;-63
2022/04/27 05:44:41;;;;;;;9.55;3.42;;;;;;;13.49;100.00;99640.28;6094301;23;20261;-64
2022/04/27 05:47:38;;;;;;;9.10;2.72;;;;;;;13.41;100.00;99616.56;6083781;23;20030;-66
2022/04/27 05:50:55;;;;;;;4.65;2.17;;;;;;;13.67;100.00;99635.22;6065123;23;20029;-63
2022/04/27 05:54:05;;;;;;;4.55;1.73;;;;;;;13.85;100.00;99634.53;6064883;23;20033;-63
2022/04/27 05:57:10;;;;;;;4.95;1.83;;;;;;;14.06;100.00;99646.25;6064595;23;20137;-64
2022/04/27 06:00:14;;;;;;;4.65;1.90;;;;;;;14.10;100.00;99649.66;6074112;23;20029;-65
2022/04/27 06:03:09;;;;;;;4.35;1.75;;;;;;;14.05;100.00;99632.97;6173274;23;20379;-63
2022/04/27 06:05:55;;;;;;;3.78;1.50;;;;;;;14.28;100.00;99659.72;6191338;22;20032;-63
2022/04/27 06:08:39;;;;;;;3.72;1.80;;;;;;;14.44;100.00;99652.88;6191779;23;20028;-64
2022/04/27 06:11:29;;;;;;;9.15;1.70;;;;;;;14.61;100.00;99647.78;6161135;23;20032;-64
2022/04/27 06:14:40;;;;;;;2.40;1.50;;;;;;;14.83;100.00;99646.03;6074476;23;20092;-65
2022/04/27 06:17:31;;;;;;;9.02;1.90;;;;;;;14.88;100.00;99652.94;6043911;23;20030;-64
2022/04/27 06:20:18;;;;;;;3.20;1.40;;;;;;;14.83;100.00;99648.69;6054234;23;20161;-64
2022/04/27 06:23:04;;;;;;;7.35;1.80;;;;;;;14.78;100.00;99648.88;6053605;23;20492;-64
2022/04/27 06:25:49;;;;;;;2.20;1.30;;;;;;;14.95;100.00;99658.91;6092680;23;20403;-64
2022/04/27 06:28:41;;;;;;;5.07;1.50;;;;;;;14.99;100.00;99661.38;6061817;23;20028;-63
2022/04/27 06:31:26;;;;;;;2.42;1.70;;;;;;;15.20;100.00;99659.66;6111052;23;20098;-63
2022/04/27 06:34:13;;;;;;;4.63;2.00;;;;;;;15.22;100.00;99647.09;6111004;23;20061;-64
2022/04/27 06:36:57;;;;;;;5.05;1.90;;;;;;;15.25;100.00;99671.03;6080525;23;20121;-63
2022/04/27 06:39:50;;;;;;;4.40;1.88;;;;;;;15.32;100.00;99665.38;6104782;23;20073;-64
2022/04/27 06:42:36;;;;;;;3.42;2.00;;;;;;;15.41;100.00;99649.00;6083125;23;20517;-64
2022/04/27 06:45:39;;;;;;;2.28;1.88;;;;;;;15.70;100.00;99675.38;6117329;23;20165;-64
2022/04/27 06:48:42;;;;;;;5.07;2.38;;;;;;;15.76;100.00;99667.09;6124247;23;20064;-67
2022/04/27 06:51:45;;;;;;;4.78;2.22;;;;;;;16.17;100.00;99667.97;6196909;22;20106;-64
2022/04/27 06:54:48;;;;;;;5.35;2.30;;;;;;;16.51;100.00;99661.09;6253774;22;20181;-65
2022/04/27 06:58:08;;;;;;;8.50;1.98;;;;;;;16.82;100.00;99668.56;6223529;23;20062;-64
2022/04/27 07:00:52;;;;;;;13.50;2.60;;;;;;;16.80;100.00;99665.09;6191883;23;20074;-64
2022/04/27 07:03:38;;;;;;;16.40;2.60;;;;;;;16.85;100.00;99665.75;6191667;23;20066;-65
2022/04/27 07:06:22;;;;;;;9.70;1.95;;;;;;;17.26;100.00;99664.66;6201811;23;20079;-64
2022/04/27 07:09:13;;;;;;;5.80;1.77;;;;;;;17.46;98.81;99660.09;6191960;23;20023;-64
2022/04/27 07:11:59;;;;;;;3.63;1.40;;;;;;;17.98;94.39;99666.34;6201856;23;20032;-63
2022/04/27 07:14:43;;;;;;;3.47;1.30;;;;;;;18.14;91.85;99640.47;6165582;23;20035;-66
2022/04/27 07:17:28;;;;;;;5.85;2.20;;;;;;;18.72;88.02;99659.72;6182580;23;20044;-64
2022/04/27 07:20:12;;;;;;;4.43;1.50;;;;;;;18.66;86.58;99660.06;6141282;23;20145;-64
2022/04/27 07:22:57;;;;;;;8.00;1.92;;;;;;;18.46;87.68;99666.50;6193389;23;20083;-64
2022/04/27 07:25:41;;;;;;;4.57;1.63;;;;;;;18.90;82.61;99675.69;6162693;23;20351;-65
2022/04/27 07:28:26;;;;;;;3.95;1.52;;;;;;;19.59;77.54;99673.56;6162174;23;20489;-64
2022/04/27 07:31:10;;;;;;;1.95;1.50;;;;;;;20.17;71.04;99682.69;6206863;23;20030;-64
2022/04/27 07:33:54;;;;;;;4.53;1.58;;;;;;;19.76;69.85;99670.75;6263751;22;20116;-64
2022/04/27 07:36:39;;;;;;;1.90;1.30;;;;;;;19.70;67.26;99679.22;6252598;22;20050;-65
2022/04/27 07:39:24;;;;;;;8.10;1.70;;;;;;;20.09;66.09;99649.94;6253228;22;20031;-63
2022/04/27 07:42:09;;;;;;;7.20;1.75;;;;;;;21.15;63.53;99663.88;6242256;22;20082;-64
2022/04/27 07:44:54;;;;;;;4.47;1.75;;;;;;;21.15;60.81;99677.34;6253052;22;20461;-64
2022/04/27 07:47:41;;;;;;;5.10;1.38;;;;;;;21.70;59.18;99671.00;6263263;22;20050;-63
2022/04/27 07:50:25;;;;;;;3.17;1.48;;;;;;;21.79;55.36;99678.47;6252692;22;20022;-64
2022/04/27 07:53:10;;;;;;;6.05;1.77;;;;;;;21.36;55.38;99670.59;6253194;22;20026;-63
2022/04/27 07:55:55;;;;;;;7.90;1.50;;;;;;;21.17;56.71;99672.75;6286655;22;20469;-63
2022/04/27 07:58:39;;;;;;;2.72;1.30;;;;;;;21.18;56.93;99661.00;6253039;22;20402;-65
2022/04/27 08:01:24;;;;;;;7.43;1.70;;;;;;;21.36;57.76;99667.91;6286636;22;20472;-65
2022/04/27 08:04:08;;;;;;;2.50;1.20;;;;;;;22.63;51.75;99673.59;6276034;22;20066;-64
2022/04/27 08:06:53;;;;;;;4.72;1.63;;;;;;;24.24;44.08;99686.78;6285981;22;20070;-64
2022/04/27 08:09:37;;;;;;;6.07;1.73;;;;;;;25.11;40.33;99686.09;6252781;22;20077;-65
2022/04/27 08:12:21;;;;;;;4.80;1.67;;;;;;;26.12;35.92;99691.28;6262924;22;20110;-64
2022/04/27 08:15:07;;;;;;;6.18;1.15;;;;;;;25.50;35.51;99690.16;6252632;22;20027;-65
2022/04/27 08:17:56;;;;;;;11.05;2.13;;;;;;;26.00;34.45;99673.28;6232626;22;20027;-64
2022/04/27 08:23:50;;;;;;;13.40;1.98;;;;;;;27.05;30.81;99693.09;6253155;22;20025;-64
2022/04/27 08:26:34;;;;;;;3.55;1.65;;;;;;;26.22;30.29;99683.19;6210483;22;20034;-65
2022/04/27 08:29:18;;;;;;;4.38;1.77;;;;;;;25.16;33.76;99681.16;6268189;22;20029;-65
2022/04/27 08:32:03;;;;;;;4.57;1.80;;;;;;;23.92;37.50;99685.66;6280930;22;20029;-64
2022/04/27 08:34:52;;;;;;;2.90;1.30;;;;;;;22.61;38.38;99648.47;6288029;22;20529;-65
2022/04/27 08:37:36;;;;;;;2.65;1.27;;;;;;;21.77;40.80;99658.78;6253638;22;20027;-65
2022/04/27 08:40:21;;;;;;;;;;;;;;;21.17;46.03;99662.81;6286750;22;20433;-64
2022/04/27 08:43:05;;;;;;;4.63;1.30;;;;;;;20.87;44.68;99666.56;6285782;22;19938;-65
2022/04/27 08:45:51;;;;;;;4.75;1.80;;;;;;;20.94;45.23;99670.66;6262636;22;20026;-63
2022/04/27 08:48:35;;;;;;;4.22;1.70;;;;;;;20.46;50.61;99663.75;6251973;22;20153;-65
2022/04/27 08:51:19;;;;;;;6.90;2.15;;;;;;;20.01;56.44;99657.59;6251390;22;20027;-65
2022/04/27 08:54:05;;;;;;;6.80;2.63;;;;;;;19.42;62.82;99671.00;6261717;22;20022;-65
2022/04/27 08:56:51;;;;;;;7.53;2.08;;;;;;;19.40;63.78;99663.00;6286111;22;20514;-65
2022/04/27 08:59:36;;;;;;;8.85;1.98;;;;;;;19.08;66.27;99668.44;6275795;22;20088;-65
2022/04/27 09:02:27;;;;;;;7.88;2.08;;;;;;;19.05;67.95;99668.59;6285773;22;20031;-65
2022/04/27 09:05:15;;;;;;;8.15;2.40;;;;;;;18.81;67.87;99660.09;6230014;22;20041;-65
2022/04/27 09:07:59;;;;;;;13.13;2.17;;;;;;;18.42;69.88;99667.63;6262906;22;20085;-65
2022/04/27 09:10:44;;;;;;;;;;;;;;;18.64;70.99;99668.22;6252893;22;20077;-64
2022/04/27 09:13:35;;;;;;;4.68;2.28;;;;;;;18.42;69.21;99672.09;6284464;22;19922;-65
2022/04/27 09:16:23;;;;;;;5.85;1.83;;;;;;;18.62;68.10;99677.31;6262906;22;20114;-64
2022/04/27 09:22:11;;;;;;;3.78;1.90;;;;;;;18.87;67.35;99672.31;6275960;22;20042;-64
2022/04/27 09:25:01;;;;;;;3.58;1.88;;;;;;;18.83;64.34;99674.28;6261371;22;20031;-64
2022/04/27 09:27:45;;;;;;;5.72;1.95;;;;;;;18.91;60.11;99665.84;6262852;22;20350;-64
2022/04/27 09:30:33;;;;;;;7.53;4.72;;;;;;;18.87;61.36;99675.00;6209603;22;20030;-62
2022/04/27 09:33:56;;;;;;;8.10;2.15;;;;;;;18.66;62.64;99670.81;6284891;22;20054;-63
2022/04/27 09:36:42;;;;;;;9.00;1.80;;;;;;;18.17;60.91;99663.59;6161766;23;20116;-62
2022/04/27 09:39:27;;;;;;;6.47;1.83;;;;;;;17.82;61.63;99676.13;6110516;23;20106;-64
2022/04/27 09:42:13;;;;;;;8.27;1.90;;;;;;;17.60;59.11;99660.25;6110143;23;20036;-65
2022/04/27 09:45:20;;;;;;;6.82;1.63;;;;;;;17.65;61.74;99674.28;6130924;23;20487;-63
2022/04/27 09:48:05;;;;;;;6.38;1.80;;;;;;;17.50;63.47;99682.25;6171032;23;20099;-64
2022/04/27 09:50:58;;;;;;;6.68;1.92;;;;;;;17.24;63.88;99683.47;6160291;23;20044;-64
2022/04/27 09:57:01;;;;;;;12.88;2.10;;;;;;;16.50;67.48;99599.59;6160999;23;20040;-65
2022/04/27 09:59:48;;;;;;;13.13;2.00;;;;;;;17.01;68.87;99688.22;6139469;23;20028;-65
2022/04/27 10:02:34;;;;;;;6.30;1.90;;;;;;;16.64;70.75;99680.13;6149046;23;20128;-64
2022/04/27 10:05:21;;;;;;;6.13;1.92;;;;;;;16.25;76.67;99681.88;6169897;23;20557;-65
2022/04/27 10:08:08;;;;;;;7.43;1.65;;;;;;;15.62;83.21;99663.28;6191764;23;20032;-65
2022/04/27 10:10:54;;;;;;;9.10;2.10;;;;;;;15.43;87.51;99702.38;6199967;22;20096;-67
2022/04/27 10:13:39;;;;;;;4.80;1.65;;;;;;;15.52;89.01;99704.66;6262585;22;20058;-67
2022/04/27 10:16:24;;;;;;;3.53;1.80;;;;;;;15.30;92.93;99711.75;6287872;22;20029;-66
2022/04/27 10:19:10;;;;;;;7.43;2.05;;;;;;;15.20;95.45;99707.75;6211826;22;20480;-66
2022/04/27 10:21:57;;;;;;;4.85;1.98;;;;;;;15.13;97.63;99725.81;6263792;22;20617;-64
2022/04/27 10:24:49;;;;;;;8.52;2.20;;;;;;;15.09;100.00;99728.66;6232247;22;20055;-60
2022/04/27 10:27:41;;;;;;;5.30;2.33;;;;;;;15.05;100.00;99735.91;6211128;22;20031;-64
2022/04/27 10:30:42;;;;;;;8.98;2.35;;;;;;;15.02;100.00;99736.03;6263642;22;20441;-64
2022/04/27 10:33:50;;;;;;;8.85;2.33;;;;;;;15.17;99.61;99738.13;6286962;22;20030;-64
2022/04/27 10:36:37;;;;;;;8.27;2.58;;;;;;;15.03;99.90;99745.78;6286638;22;20041;-65
2022/04/27 10:39:23;;;;;;;5.78;2.25;;;;;;;15.10;98.37;99744.63;6286212;22;20515;-67
2022/04/27 10:42:20;;;;;;;7.30;2.08;;;;;;;15.27;96.01;99747.50;6253541;22;20026;-64
2022/04/27 10:45:05;;;;;;;3.97;2.28;;;;;;;15.22;95.55;99756.59;6275018;22;20043;-64
2022/04/27 10:47:50;;;;;;;;;;;;;;;15.26;94.45;99752.88;6286673;22;20112;-63
2022/04/27 10:50:37;;;;;;;9.35;2.03;;;;;;;15.34;94.63;99754.34;6264355;22;19969;-64
2022/04/27 10:53:25;;;;;;;6.80;2.03;;;;;;;15.15;95.50;99733.78;6277186;22;20153;-64
2022/04/27 10:56:25;;;;;;;4.53;1.90;;;;;;;15.11;96.39;99743.69;6232389;22;20039;-65
2022/04/27 10:59:49;;;;;;;7.55;2.25;;;;;;;15.32;96.04;99753.56;6232166;22;20027;-66
2022/04/27 11:02:38;;;;;;;6.13;2.13;;;;;;;15.31;93.91;99761.63;6263998;22;20031;-63
2022/04/27 11:05:23;;;;;;;4.28;1.95;;;;;;;15.16;93.42;99749.75;6284803;22;20054;-63
2022/04/27 11:08:13;;;;;;;;;;;;;;;15.14;95.32;99753.38;6253070;22;20026;-63
2022/04/27 11:11:05;;;;;;;4.90;2.20;;;;;;;15.08;95.29;99753.63;6210217;22;19973;-63
2022/04/27 11:13:51;;;;;;;4.57;1.77;;;;;;;14.99;94.30;99746.81;6262259;22;20026;-64
2022/04/27 11:16:43;;;;;;;6.32;2.20;;;;;;;14.98;96.39;99762.91;6243048;22;20030;-63
2022/04/27 11:19:40;;;;;;;8.05;2.30;;;;;;;15.04;98.41;99752.88;6253641;22;20026;-61
2022/04/27 11:22:25;;;;;;;7.00;2.40;;;;;;;14.98;100.00;99755.78;6286766;22;20025;-63
2022/04/27 11:25:11;;;;;;;6.07;1.98;;;;;;;15.00;100.00;99755.72;6252677;22;20066;-63
2022/04/27 11:27:57;;;;;;;5.68;2.42;;;;;;;15.09;100.00;99758.91;6241839;22;20074;-63
2022/04/27 11:30:42;;;;;;;10.18;2.78;;;;;;;15.20;100.00;99759.38;6285949;22;20025;-64
2022/04/27 11:33:28;;;;;;;4.18;2.17;;;;;;;15.28;100.00;99751.03;6210737;22;20026;-64
2022/04/27 11:36:26;;;;;;;3.88;2.20;;;;;;;15.31;95.51;99750.94;6253394;22;20107;-65
2022/04/27 11:39:22;;;;;;;7.47;2.63;;;;;;;15.16;92.28;99754.19;6253603;22;20114;-65
2022/04/27 11:42:06;;;;;;;6.72;2.00;;;;;;;14.94;91.59;99759.47;6262846;22;20023;-68
2022/04/27 11:44:52;;;;;;;4.25;2.03;;;;;;;14.83;92.93;99758.16;6231267;22;20497;-65
2022/04/27 11:47:36;;;;;;;3.78;2.00;;;;;;;14.75;95.02;99752.22;6286419;22;20341;-64
2022/04/27 11:50:21;;;;;;;9.20;2.40;;;;;;;14.68;96.48;99769.38;6231915;22;20513;-63
2022/04/27 11:53:08;;;;;;;7.65;2.80;;;;;;;14.72;97.88;99765.69;6263646;22;20035;-64
2022/04/27 11:55:53;;;;;;;10.90;3.75;;;;;;;14.77;100.00;99769.03;6254661;22;20039;-64
2022/04/27 11:58:38;;;;;;;;;;;;;;;15.05;100.00;99777.75;6212513;22;20061;-64
2022/04/27 12:01:23;;;;;;;5.78;2.90;;;;;;;14.98;99.48;99771.78;6242343;22;19965;-65
2022/04/27 12:04:08;;;;;;;;;;;;;;;15.05;98.64;99778.66;6276688;22;20155;-64
2022/04/27 12:06:52;;;;;;;3.95;2.40;;;;;;;15.11;98.95;99774.88;6210451;22;19926;-63
2022/04/27 12:09:37;;;;;;;6.68;2.90;;;;;;;15.14;98.18;99772.94;6253233;22;20062;-64
2022/04/27 12:12:22;;;;;;;4.85;2.47;;;;;;;14.80;100.00;99774.28;6231893;22;20074;-63
2022/04/27 12:15:11;;;;;;;5.05;2.63;;;;;;;14.68;100.00;99769.38;6262715;22;20106;-65
2022/04/27 12:18:01;;;;;;;5.75;3.17;;;;;;;14.38;100.00;99770.47;6241754;22;20123;-65
2022/04/27 12:20:48;;;;;;;16.92;3.58;;;;;;;14.39;100.00;99790.91;6286364;22;20086;-65
2022/04/27 12:23:38;;;;;;;7.68;2.70;;;;;;;13.73;100.00;99784.22;6285923;22;20027;-65
2022/04/27 12:26:24;;;;;;;9.85;3.10;;;;;;;13.44;100.00;99792.25;6285811;22;20107;-64
2022/04/27 12:29:09;;;;;;;9.73;3.03;;;;;;;13.12;100.00;99789.72;6230837;22;20478;-65
2022/04/27 12:31:57;;;;;;;10.75;2.40;;;;;;;13.02;100.00;99798.88;6286247;22;20030;-64
2022/04/27 12:37:46;;;;;;;8.43;2.85;;;;;;;12.76;100.00;99800.50;6278458;22;20412;-64
2022/04/27 12:40:32;;;;;;;7.20;3.78;;;;;;;12.67;100.00;99801.63;6262856;22;20360;-63
2022/04/27 12:43:17;;;;;;;8.15;2.45;;;;;;;12.45;100.00;99811.13;6241538;22;20054;-64
2022/04/27 12:46:10;;;;;;;6.47;2.90;;;;;;;12.60;100.00;99810.72;6240867;22;20045;-63
2022/04/27 12:49:07;;;;;;;5.20;2.60;;;;;;;12.55;100.00;99806.44;6285659;22;20074;-65
2022/04/27 12:51:54;;;;;;;5.50;2.55;;;;;;;12.48;100.00;99826.13;6242008;22;20110;-64
2022/04/27 12:54:39;;;;;;;5.28;2.60;;;;;;;12.58;100.00;99828.50;6262936;22;20025;-63
2022/04/27 12:57:23;;;;;;;3.60;2.03;;;;;;;12.59;100.00;99835.56;6286184;22;20031;-62
2022/04/27 13:00:08;;;;;;;3.55;1.77;;;;;;;12.52;100.00;99849.06;6262549;22;20373;-64
2022/04/27 13:02:52;;;;;;;7.43;1.95;;;;;;;12.67;100.00;99859.31;6285404;22;20445;-63
2022/04/27 13:05:40;;;;;;;5.93;2.80;;;;;;;12.72;100.00;99858.28;6285632;22;20034;-65
2022/04/27 13:08:25;;;;;;;7.70;3.33;;;;;;;12.73;100.00;99873.31;6231282;22;20410;-64
2022/04/27 13:14:12;;;;;;;6.55;2.80;;;;;;;12.71;100.00;99877.78;6230649;22;20450;-66
2022/04/27 13:16:57;;;;;;;4.93;2.92;;;;;;;12.72;100.00;99876.00;6252089;22;20031;-64
2022/04/27 13:19:42;;;;;;;5.97;3.28;;;;;;;12.70;100.00;99878.72;6285519;22;20066;-64
2022/04/27 13:22:26;;;;;;;15.95;7.05;;;;;;;12.66;100.00;99892.16;6230610;22;20357;-64
2022/04/27 13:25:11;;;;;;;9.30;3.95;;;;;;;12.71;100.00;99893.75;6231094;22;20027;-65
2022/04/27 13:27:56;;;;;;;5.03;3.25;;;;;;;12.69;100.00;99897.38;6251971;22;20030;-65
2022/04/27 13:30:41;;;;;;;7.50;4.18;;;;;;;12.64;100.00;99912.59;6260866;22;20099;-64
2022/04/27 13:33:25;;;;;;;6.88;3.50;;;;;;;12.34;100.00;99884.13;6240375;22;20115;-65
2022/04/27 13:36:10;;;;;;;6.72;3.13;;;;;;;12.30;100.00;99909.91;6229065;22;20053;-63
2022/04/27 13:38:54;;;;;;;6.18;3.63;;;;;;;12.30;100.00;99907.25;6285657;22;20033;-64
2022/04/27 13:41:39;;;;;;;8.23;3.85;;;;;;;12.31;100.00;99914.31;6262076;22;20082;-65
2022/04/27 13:44:24;;;;;;;5.90;3.70;;;;;;;12.36;100.00;99912.44;6251503;22;20512;-65
2022/04/27 13:47:08;;;;;;;6.93;3.38;;;;;;;12.48;100.00;99911.22;6209545;22;20155;-65
2022/04/27 13:49:53;;;;;;;11.93;8.45;;;;;;;12.55;100.00;99920.81;6287980;22;20365;-65
2022/04/27 13:52:38;;;;;;;8.38;3.67;;;;;;;12.43;100.00;99908.69;6263652;22;20137;-66
2022/04/27 13:55:23;;;;;;;;;;;;;;;12.64;100.00;99908.16;6287823;22;20030;-68
2022/04/27 13:58:08;;;;;;;;;;;;;;;12.77;100.00;99909.56;6232919;22;19918;-66
2022/04/27 14:00:53;;;;;;;9.73;4.00;;;;;;;12.36;100.00;99874.31;6264360;22;20042;-64
2022/04/27 14:03:37;;;;;;;8.73;3.95;;;;;;;12.51;100.00;99911.16;6253487;22;20085;-72
2022/04/27 14:06:22;;;;;;;7.00;4.03;;;;;;;12.55;100.00;99897.72;6232869;22;20027;-64
2022/04/27 14:09:07;;;;;;;9.65;4.00;;;;;;;12.68;100.00;99901.84;6254624;22;20488;-63
2022/04/27 14:14:56;;;;;;;11.90;4.70;;;;;;;12.64;100.00;99883.31;6290514;22;20054;-64
2022/04/27 14:20:45;;;;;;;11.07;5.18;;;;;;;12.85;100.00;99925.31;6288421;22;20030;-66
2022/04/27 14:23:30;;;;;;;8.73;5.20;;;;;;;12.81;100.00;99947.59;6258606;22;20259;-68
2022/04/27 14:26:14;;;;;;;12.70;5.23;;;;;;;12.75;100.00;99921.16;6228105;22;20532;-65
2022/04/27 14:28:58;;;;;;;9.30;5.25;;;;;;;12.90;100.00;99939.41;6259383;22;20745;-65
2022/04/27 14:31:43;;;;;;;10.00;5.07;;;;;;;12.94;100.00;99952.56;6280391;22;20161;-68
2022/04/27 14:34:30;;;;;;;12.13;5.35;;;;;;;12.94;100.00;99951.72;6282273;22;20397;-65
2022/04/27 14:37:14;;;;;;;10.48;4.78;;;;;;;12.86;100.00;99925.28;6256557;22;20532;-65
2022/04/27 14:39:58;;;;;;;9.82;4.10;;;;;;;13.15;100.00;99954.69;6227168;22;20030;-66
2022/04/27 14:42:43;;;;;;;6.78;4.07;;;;;;;13.13;100.00;99955.63;6282325;22;20554;-66
2022/04/27 14:45:28;;;;;;;9.30;4.20;;;;;;;13.17;100.00;99957.28;6227733;22;20027;-66
2022/04/27 14:48:12;;;;;;;5.95;3.20;;;;;;;13.18;100.00;99954.59;6281949;22;20022;-65
2022/04/27 14:50:57;;;;;;;7.40;3.10;;;;;;;12.95;100.00;99954.34;6204564;22;20030;-70
2022/04/27 14:53:41;;;;;;;5.13;2.72;;;;;;;12.92;100.00;99967.72;6282225;22;20436;-65
2022/04/27 14:56:26;;;;;;;5.63;2.40;;;;;;;12.84;100.00;99976.81;6279362;22;20168;-65